createdAt,value
2022-08-17T00:04:19.594Z,24.17
2022-08-17T00:09:23.658Z,24.23
2022-08-17T00:14:26.781Z,24.28
2022-08-17T00:19:30.232Z,24.29
2022-08-17T00:24:33.586Z,24.25
2022-08-17T00:29:36.908Z,24.41
2022-08-17T00:34:40.633Z,24.32
2022-08-17T00:39:44.528Z,24.25
2022-08-17T00:44:48.217Z,24.50
2022-08-17T00:49:52.158Z,24.49
2022-08-17T00:54:56.147Z,24.41
2022-08-17T01:00:05.925Z,24.64
2022-08-17T01:05:14.704Z,24.58
2022-08-17T01:10:59.359Z,24.44
2022-08-17T01:15:58.011Z,24.38
2022-08-17T01:21:09.576Z,24.35
2022-08-17T01:26:13.350Z,24.31
2022-08-17T01:31:17.610Z,24.34
2022-08-17T01:36:20.662Z,24.40
2022-08-17T01:41:24.692Z,24.46
2022-08-17T01:46:33.309Z,24.46
2022-08-17T01:51:38.336Z,24.47
2022-08-17T01:56:47.469Z,24.56
2022-08-17T02:01:50.851Z,24.44
2022-08-17T02:06:54.698Z,24.45
2022-08-17T02:12:37.094Z,24.54
2022-08-17T02:17:23.591Z,24.54
2022-08-17T02:22:28.177Z,24.59
2022-08-17T02:27:32.618Z,24.77
2022-08-17T02:32:36.336Z,24.80
2022-08-17T02:37:42.333Z,24.68
2022-08-17T02:42:46.555Z,24.70
2022-08-17T02:47:51.196Z,24.73
2022-08-17T02:53:02.094Z,24.60
2022-08-17T02:58:07.807Z,24.68
2022-08-17T03:03:13.866Z,24.60
2022-08-17T03:08:18.986Z,24.64
2022-08-17T03:13:22.643Z,24.63
2022-08-17T03:18:26.430Z,24.71
2022-08-17T03:23:30.421Z,24.62
2022-08-17T03:28:33.908Z,24.52
2022-08-17T03:33:36.857Z,24.43
2022-08-17T03:38:40.882Z,24.46
2022-08-17T03:43:44.349Z,24.46
2022-08-17T03:49:06.620Z,24.44
2022-08-17T03:54:29.743Z,24.49
2022-08-17T03:59:33.328Z,24.47
2022-08-17T04:04:37.808Z,24.29
2022-08-17T04:09:40.761Z,23.86
2022-08-17T04:14:53.445Z,23.91
2022-08-17T04:19:57.819Z,24.01
2022-08-17T04:25:14.973Z,24.09
2022-08-17T04:30:17.966Z,24.17
2022-08-17T04:35:28.023Z,24.23
2022-08-17T04:40:49.881Z,24.43
2022-08-17T04:46:06.074Z,24.47
2022-08-17T04:51:10.682Z,24.55
2022-08-17T04:56:18.217Z,24.58
2022-08-17T05:01:24.504Z,24.78
2022-08-17T05:06:29.926Z,24.94
2022-08-17T05:11:32.967Z,25.12
2022-08-17T05:16:36.309Z,25.31
2022-08-17T05:21:39.307Z,25.58
2022-08-17T05:26:43.419Z,25.67
2022-08-17T05:31:46.783Z,25.90
2022-08-17T05:36:50.385Z,26.18
2022-08-17T05:41:53.352Z,26.33
2022-08-17T05:46:59.957Z,26.57
2022-08-17T05:52:32.642Z,26.82
2022-08-17T05:57:56.058Z,27.05
2022-08-17T06:03:27.365Z,27.21
2022-08-17T06:08:39.757Z,27.15
2022-08-17T06:14:10.162Z,27.58
2022-08-17T06:19:50.113Z,28.14
2022-08-17T06:25:13.061Z,29.13
2022-08-17T06:30:26.500Z,31.71
2022-08-17T06:35:42.518Z,32.94
2022-08-17T06:41:25.465Z,34.19
2022-08-17T06:46:41.097Z,35.17
2022-08-17T06:52:00.423Z,35.26
2022-08-17T06:57:52.425Z,36.44
2022-08-17T07:03:44.280Z,36.33
2022-08-17T07:09:23.247Z,36.30
2022-08-17T07:14:57.301Z,36.45
2022-08-17T07:20:20.806Z,36.97
2022-08-17T07:25:24.980Z,36.78
2022-08-17T07:31:18.096Z,36.91
2022-08-17T07:36:33.975Z,37.31
2022-08-17T07:41:53.462Z,37.63
2022-08-17T07:47:34.423Z,37.06
2022-08-17T07:53:20.422Z,36.88
2022-08-17T07:58:49.437Z,37.58
2022-08-17T08:10:02.251Z,36.24
2022-08-17T08:15:53.867Z,36.76
2022-08-17T08:21:34.720Z,37.13
2022-08-17T08:26:56.011Z,37.97
2022-08-17T08:32:18.631Z,37.52
2022-08-17T08:37:34.724Z,37.58
2022-08-17T08:42:50.557Z,37.67
2022-08-17T08:48:05.915Z,37.10
2022-08-17T08:53:49.531Z,37.53
2022-08-17T08:59:10.789Z,38.47
2022-08-17T09:04:25.007Z,38.34
2022-08-17T09:09:56.102Z,38.63
2022-08-17T09:15:18.867Z,38.33
2022-08-17T09:20:51.306Z,38.37
2022-08-17T09:26:58.240Z,38.29
2022-08-17T09:32:10.101Z,38.39
2022-08-17T09:37:42.022Z,35.98
2022-08-17T09:43:59.143Z,36.58
2022-08-17T09:49:40.943Z,37.53
2022-08-17T09:54:49.164Z,37.45
2022-08-17T10:00:36.482Z,38.20
2022-08-17T10:06:38.968Z,38.15
2022-08-17T10:12:47.081Z,38.34
2022-08-17T10:18:46.428Z,37.55
2022-08-17T10:25:13.496Z,39.21
2022-08-17T10:31:36.294Z,39.61
2022-08-17T10:37:32.039Z,38.81
2022-08-17T10:43:27.410Z,37.91
2022-08-17T10:48:38.238Z,38.99
2022-08-17T10:53:41.842Z,38.95
2022-08-17T10:59:56.347Z,40.49
2022-08-17T11:05:02.915Z,39.32
2022-08-17T11:10:30.120Z,40.61
2022-08-17T11:16:48.065Z,40.06
2022-08-17T11:22:45.093Z,40.25
2022-08-17T11:28:14.643Z,39.87
2022-08-17T11:34:02.467Z,39.20
2022-08-17T11:40:12.811Z,39.98
2022-08-17T11:45:39.137Z,40.14
2022-08-17T11:51:13.943Z,40.16
2022-08-17T11:56:41.505Z,40.37
2022-08-17T12:01:58.644Z,40.03
2022-08-17T12:07:14.056Z,39.81
2022-08-17T12:12:45.133Z,40.15
2022-08-17T12:18:54.860Z,39.83
2022-08-17T12:24:51.336Z,39.13
2022-08-17T12:30:10.480Z,39.95
2022-08-17T12:35:46.235Z,39.76
2022-08-17T12:41:50.459Z,38.59
2022-08-17T12:47:22.616Z,37.74
2022-08-17T12:58:13.970Z,39.47
2022-08-17T13:03:40.712Z,39.97
2022-08-17T13:08:55.342Z,39.42
2022-08-17T13:14:10.893Z,40.36
2022-08-17T13:19:40.823Z,40.85
2022-08-17T13:25:15.428Z,40.65
2022-08-17T13:30:29.578Z,40.50
2022-08-17T13:36:06.407Z,40.05
2022-08-17T13:41:37.488Z,40.06
2022-08-17T13:47:07.226Z,40.28
2022-08-17T13:53:06.765Z,40.06
2022-08-17T13:58:47.792Z,40.20
2022-08-17T14:04:41.541Z,40.13
2022-08-17T14:10:24.391Z,39.41
2022-08-17T14:16:14.407Z,39.35
2022-08-17T14:21:28.116Z,39.11
2022-08-17T14:27:12.224Z,38.97
2022-08-17T14:32:20.855Z,38.77
2022-08-17T14:38:03.735Z,38.77
2022-08-17T14:43:16.041Z,38.19
2022-08-17T14:48:41.008Z,38.26
2022-08-17T14:53:47.540Z,37.74
2022-08-17T14:58:56.857Z,37.18
2022-08-17T15:04:31.129Z,36.23
2022-08-17T15:10:03.028Z,36.50
2022-08-17T15:15:14.893Z,36.41
2022-08-17T15:20:23.114Z,36.41
2022-08-17T15:25:32.343Z,36.29
2022-08-17T15:30:36.264Z,35.99
2022-08-17T15:35:43.839Z,35.39
2022-08-17T15:40:50.033Z,35.36
2022-08-17T15:46:06.446Z,34.68
2022-08-17T15:51:16.748Z,34.45
2022-08-17T15:56:20.211Z,34.06
2022-08-17T16:02:24.775Z,33.94
2022-08-17T16:06:49.773Z,33.51
2022-08-17T16:11:55.600Z,33.09
2022-08-17T16:16:59.439Z,32.57
2022-08-17T16:22:03.386Z,32.12
2022-08-17T16:27:12.735Z,31.81
2022-08-17T16:32:22.613Z,31.43
2022-08-17T16:37:36.687Z,31.04
2022-08-17T16:42:40.004Z,30.93
2022-08-17T16:47:44.029Z,30.51
2022-08-17T16:52:50.583Z,30.35
2022-08-17T16:57:53.623Z,30.08
2022-08-17T17:02:56.839Z,29.81
2022-08-17T17:08:15.569Z,29.49
2022-08-17T17:13:37.559Z,29.26
2022-08-17T17:18:59.322Z,29.09
2022-08-17T17:24:11.759Z,28.85
2022-08-17T17:29:50.186Z,28.57
2022-08-17T17:34:57.020Z,28.21
2022-08-17T17:40:23.698Z,27.95
2022-08-17T17:45:32.952Z,27.68
2022-08-17T17:50:48.045Z,27.37
2022-08-17T17:56:21.043Z,27.06
2022-08-17T18:02:03.600Z,26.84
2022-08-17T18:07:18.606Z,26.36
2022-08-17T18:12:41.443Z,25.83
2022-08-17T18:18:13.878Z,25.62
2022-08-17T18:23:27.668Z,25.40
2022-08-17T18:28:44.132Z,25.25
2022-08-17T18:33:49.994Z,25.08
2022-08-17T18:39:11.143Z,24.99
2022-08-17T18:44:38.265Z,24.84
2022-08-17T18:49:43.899Z,24.70
2022-08-17T18:55:09.057Z,24.63
2022-08-17T19:00:32.475Z,24.57
2022-08-17T19:05:38.869Z,24.49
2022-08-17T19:10:46.464Z,24.53
2022-08-17T19:16:15.153Z,24.31
2022-08-17T19:21:23.687Z,24.24
2022-08-17T19:26:53.637Z,23.99
2022-08-17T19:32:00.127Z,23.82
2022-08-17T19:37:22.668Z,23.66
2022-08-17T19:43:02.907Z,23.71
2022-08-17T19:48:30.037Z,23.65
2022-08-17T19:54:06.235Z,23.63
2022-08-17T19:59:49.179Z,23.45
2022-08-17T20:04:57.195Z,23.29
2022-08-17T20:10:08.387Z,23.15
2022-08-17T20:15:14.633Z,23.10
2022-08-17T20:20:24.107Z,22.99
2022-08-17T20:25:59.921Z,22.91
2022-08-17T20:31:51.635Z,22.83
2022-08-17T20:37:20.286Z,22.76
2022-08-17T20:42:23.358Z,22.71
2022-08-17T20:47:34.146Z,22.69
2022-08-17T20:52:57.360Z,22.75
2022-08-17T20:58:22.264Z,22.67
2022-08-17T21:03:27.025Z,22.73
2022-08-17T21:08:35.088Z,22.87
2022-08-17T21:14:19.835Z,23.02
2022-08-17T21:19:48.998Z,22.95
2022-08-17T21:25:28.918Z,23.08
2022-08-17T21:30:34.490Z,23.18
2022-08-17T21:35:51.890Z,23.14
2022-08-17T21:40:55.971Z,23.11
2022-08-17T21:46:06.844Z,22.96
2022-08-17T21:51:19.810Z,22.97
2022-08-17T21:56:26.660Z,22.93
2022-08-17T22:01:34.969Z,22.91
2022-08-17T22:06:55.815Z,22.87
2022-08-17T22:12:31.913Z,22.87
2022-08-17T22:17:40.817Z,22.93
2022-08-17T22:23:08.768Z,22.98
2022-08-17T22:28:13.215Z,23.09
2022-08-17T22:33:33.552Z,23.08
2022-08-17T22:38:38.097Z,23.02
2022-08-17T22:43:43.716Z,22.90
2022-08-17T22:48:55.463Z,22.82
2022-08-17T22:54:20.860Z,22.74
2022-08-17T22:59:56.332Z,22.63
2022-08-17T23:05:13.137Z,22.57
2022-08-17T23:10:16.292Z,22.61
2022-08-17T23:15:20.494Z,22.52
2022-08-17T23:20:24.094Z,22.36
2022-08-17T23:25:32.564Z,22.39
2022-08-17T23:30:39.768Z,22.39
2022-08-17T23:35:44.814Z,22.28
2022-08-17T23:40:47.978Z,22.07
2022-08-17T23:45:59.928Z,21.88
2022-08-17T23:51:09.376Z,21.71
2022-08-17T23:56:12.535Z,21.70
